createdAt,value
2023-04-23T00:00:54.184Z,18.77
2023-04-23T00:03:24.411Z,17.00
2023-04-23T00:05:53.262Z,17.27
2023-04-23T00:08:21.438Z,17.07
2023-04-23T00:10:49.346Z,17.50
2023-04-23T00:13:17.065Z,19.37
2023-04-23T00:15:44.943Z,21.10
2023-04-23T00:18:12.661Z,23.47
2023-04-23T00:20:40.271Z,24.60
2023-04-23T00:23:08.154Z,26.80
2023-04-23T00:25:35.783Z,25.07
2023-04-23T00:28:03.906Z,26.97
2023-04-23T00:30:31.417Z,25.90
2023-04-23T00:32:59.012Z,26.17
2023-04-23T00:35:26.539Z,27.73
2023-04-23T00:37:54.005Z,27.00
2023-04-23T00:40:21.841Z,27.70
2023-04-23T00:42:52.430Z,29.13
2023-04-23T00:45:21.081Z,30.30
2023-04-23T00:47:49.864Z,30.90
2023-04-23T00:50:17.386Z,32.07
2023-04-23T00:52:44.935Z,28.10
2023-04-23T00:55:12.408Z,28.77
2023-04-23T00:57:41.108Z,27.03
2023-04-23T01:00:09.822Z,27.63
2023-04-23T01:02:38.695Z,28.10
2023-04-23T01:05:08.309Z,27.60
2023-04-23T01:07:36.857Z,26.27
2023-04-23T01:10:05.531Z,28.33
2023-04-23T01:12:33.801Z,24.13
2023-04-23T01:15:01.658Z,25.30
2023-04-23T01:17:29.208Z,25.97
2023-04-23T01:19:57.312Z,23.33
2023-04-23T01:22:24.990Z,24.53
2023-04-23T01:24:53.240Z,24.53
2023-04-23T01:27:22.500Z,23.50
2023-04-23T01:29:50.319Z,22.10
2023-04-23T01:32:18.421Z,21.07
2023-04-23T01:34:48.324Z,21.63
2023-04-23T01:37:17.071Z,20.87
2023-04-23T01:39:44.612Z,19.93
2023-04-23T01:42:12.258Z,21.27
2023-04-23T01:44:43.072Z,17.60
2023-04-23T01:47:11.481Z,20.00
2023-04-23T01:49:39.131Z,17.87
2023-04-23T01:52:06.652Z,18.30
2023-04-23T01:54:34.157Z,17.10
2023-04-23T01:57:01.785Z,15.40
2023-04-23T01:59:29.312Z,15.17
2023-04-23T02:01:56.968Z,13.17
2023-04-23T02:04:28.671Z,13.63
2023-04-23T02:06:56.316Z,12.00
2023-04-23T02:09:23.806Z,11.03
2023-04-23T02:11:51.366Z,11.67
2023-04-23T02:14:18.909Z,11.90
2023-04-23T02:16:47.688Z,10.90
2023-04-23T02:19:19.235Z,11.80
2023-04-23T02:21:46.795Z,11.03
2023-04-23T02:24:14.320Z,11.47
2023-04-23T02:26:41.939Z,12.20
2023-04-23T02:29:09.421Z,10.53
2023-04-23T02:31:37.026Z,10.53
2023-04-23T02:34:04.574Z,10.93
2023-04-23T02:36:32.700Z,9.60
2023-04-23T02:39:00.149Z,10.50
2023-04-23T02:41:27.643Z,9.17
2023-04-23T02:43:55.158Z,9.97
2023-04-23T02:46:22.670Z,8.70
2023-04-23T02:48:50.571Z,8.23
2023-04-23T02:51:19.037Z,8.47
2023-04-23T02:53:46.607Z,7.80
2023-04-23T02:56:14.169Z,7.33
2023-04-23T02:58:41.746Z,6.70
2023-04-23T03:01:09.387Z,6.03
2023-04-23T03:03:37.186Z,7.40
2023-04-23T03:06:05.281Z,7.07
2023-04-23T03:08:32.979Z,5.60
2023-04-23T03:11:00.509Z,5.43
2023-04-23T03:13:28.095Z,7.23
2023-04-23T03:15:56.570Z,6.30
2023-04-23T03:18:24.247Z,6.20
2023-04-23T03:20:51.808Z,6.10
2023-04-23T03:23:19.330Z,4.30
2023-04-23T03:25:46.801Z,5.57
2023-04-23T03:28:14.474Z,4.90
2023-04-23T03:30:42.246Z,5.30
2023-04-23T03:33:09.846Z,4.50
2023-04-23T03:35:37.431Z,4.57
2023-04-23T03:38:05.017Z,4.43
2023-04-23T03:40:32.681Z,4.50
2023-04-23T03:43:00.442Z,4.03
2023-04-23T03:45:27.966Z,4.17
2023-04-23T03:47:55.510Z,3.57
2023-04-23T03:50:23.112Z,4.17
2023-04-23T03:52:53.618Z,3.90
2023-04-23T03:55:21.434Z,3.50
2023-04-23T03:57:48.962Z,3.70
2023-04-23T04:00:16.649Z,3.33
2023-04-23T04:02:44.421Z,3.23
2023-04-23T04:05:12.315Z,3.60
2023-04-23T04:07:40.801Z,3.40
2023-04-23T04:10:08.611Z,3.60
2023-04-23T04:12:36.781Z,2.50
2023-04-23T04:15:05.124Z,3.20
2023-04-23T04:17:35.518Z,2.80
2023-04-23T04:20:03.136Z,3.13
2023-04-23T04:22:31.280Z,3.07
2023-04-23T04:24:58.814Z,4.20
2023-04-23T04:27:26.649Z,3.40
2023-04-23T04:29:54.186Z,3.40
2023-04-23T04:32:22.544Z,3.40
2023-04-23T04:34:50.941Z,3.07
2023-04-23T04:37:18.468Z,3.90
2023-04-23T04:39:46.025Z,3.27
2023-04-23T04:42:13.755Z,3.10
2023-04-23T04:44:41.882Z,2.90
2023-04-23T04:47:09.740Z,2.83
2023-04-23T04:49:37.411Z,3.20
2023-04-23T04:52:05.015Z,3.00
2023-04-23T04:54:32.608Z,2.80
2023-04-23T04:57:00.149Z,3.00
2023-04-23T04:59:27.646Z,3.10
2023-04-23T05:01:55.364Z,3.07
2023-04-23T05:04:23.021Z,3.30
2023-04-23T05:06:50.662Z,3.40
2023-04-23T05:09:18.259Z,2.50
2023-04-23T05:11:45.929Z,3.00
2023-04-23T05:14:13.477Z,2.73
2023-04-23T05:16:41.002Z,3.67
2023-04-23T05:19:08.791Z,4.00
2023-04-23T05:21:36.467Z,2.80
2023-04-23T05:24:04.102Z,3.17
2023-04-23T05:26:31.826Z,2.97
2023-04-23T05:28:59.397Z,3.37
2023-04-23T05:31:29.239Z,3.23
2023-04-23T05:33:56.943Z,3.70
2023-04-23T05:36:24.498Z,3.27
2023-04-23T05:38:52.027Z,3.67
2023-04-23T05:41:19.787Z,3.37
2023-04-23T05:43:47.327Z,3.20
2023-04-23T05:46:14.836Z,3.50
2023-04-23T05:48:42.426Z,3.30
2023-04-23T05:51:10.251Z,3.73
2023-04-23T05:53:38.065Z,3.70
2023-04-23T05:56:05.859Z,3.07
2023-04-23T05:58:33.349Z,3.43
2023-04-23T06:01:00.844Z,3.50
2023-04-23T06:03:29.483Z,3.37
2023-04-23T06:05:57.177Z,3.07
2023-04-23T06:08:25.317Z,3.50
2023-04-23T06:10:53.061Z,3.60
2023-04-23T06:13:20.590Z,4.00
2023-04-23T06:15:48.157Z,4.43
2023-04-23T06:18:15.782Z,3.40
2023-04-23T06:20:43.357Z,4.70
2023-04-23T06:23:13.936Z,4.43
2023-04-23T06:25:41.483Z,4.20
2023-04-23T06:28:09.047Z,4.27
2023-04-23T06:30:39.373Z,4.50
2023-04-23T06:33:07.289Z,4.70
2023-04-23T06:35:34.953Z,4.80
2023-04-23T06:38:02.432Z,5.10
2023-04-23T06:40:30.145Z,4.63
2023-04-23T06:42:57.892Z,5.00
2023-04-23T06:45:25.581Z,4.20
2023-04-23T06:47:53.095Z,5.40
2023-04-23T06:50:20.740Z,4.60
2023-04-23T06:52:51.221Z,5.13
2023-04-23T06:55:19.208Z,4.00
2023-04-23T06:57:46.701Z,5.57
2023-04-23T07:00:14.504Z,5.00
2023-04-23T07:02:42.497Z,4.77
2023-04-23T07:05:10.727Z,3.90
2023-04-23T07:07:38.783Z,4.50
2023-04-23T07:10:07.585Z,4.80
2023-04-23T07:12:35.233Z,5.73
2023-04-23T07:15:03.552Z,4.90
2023-04-23T07:17:31.480Z,4.93
2023-04-23T07:19:59.158Z,6.10
2023-04-23T07:22:28.852Z,5.50
2023-04-23T07:24:57.889Z,6.00
2023-04-23T07:27:25.803Z,4.50
2023-04-23T07:29:53.443Z,7.40
2023-04-23T07:32:24.055Z,7.63
2023-04-23T07:34:51.720Z,7.83
2023-04-23T07:37:19.996Z,6.43
2023-04-23T07:39:48.090Z,6.80
2023-04-23T07:42:16.140Z,7.60
2023-04-23T07:44:44.346Z,8.37
2023-04-23T07:47:12.040Z,8.03
2023-04-23T07:49:39.973Z,8.20
2023-04-23T07:52:12.617Z,9.17
2023-04-23T07:54:40.601Z,7.80
2023-04-23T07:57:09.792Z,8.63
2023-04-23T07:59:41.307Z,10.70
2023-04-23T08:02:09.562Z,9.60
2023-04-23T08:04:37.601Z,10.47
2023-04-23T08:07:05.997Z,9.73
2023-04-23T08:09:33.627Z,10.97
2023-04-23T08:12:02.566Z,10.90
2023-04-23T08:14:30.193Z,11.47
2023-04-23T08:16:57.715Z,11.70
2023-04-23T08:19:26.136Z,10.27
2023-04-23T08:21:54.002Z,10.43
2023-04-23T08:24:21.526Z,11.23
2023-04-23T08:26:49.129Z,11.67
2023-04-23T08:29:16.657Z,12.13
2023-04-23T08:31:44.493Z,13.73
2023-04-23T08:34:12.022Z,13.10
2023-04-23T08:36:40.359Z,12.90
2023-04-23T08:39:08.189Z,16.20
2023-04-23T08:41:45.104Z,13.27
2023-04-23T08:44:15.119Z,12.10
2023-04-23T08:46:44.874Z,11.80
2023-04-23T08:49:17.938Z,12.37
2023-04-23T08:51:54.349Z,12.60
2023-04-23T08:54:29.514Z,12.30
2023-04-23T08:56:58.742Z,12.10
2023-04-23T08:59:30.109Z,14.20
2023-04-23T09:01:58.137Z,12.30
2023-04-23T09:04:26.352Z,11.80
2023-04-23T09:06:54.084Z,11.43
2023-04-23T09:09:24.054Z,11.63
2023-04-23T09:11:54.112Z,10.93
2023-04-23T09:14:25.745Z,12.27
2023-04-23T09:16:54.092Z,11.27
2023-04-23T09:19:21.851Z,11.10
2023-04-23T09:21:49.401Z,11.80
2023-04-23T09:24:18.212Z,28.30
2023-04-23T09:26:47.290Z,20.10
2023-04-23T09:29:23.853Z,16.93
2023-04-23T09:31:55.919Z,13.80
2023-04-23T09:34:25.628Z,14.00
2023-04-23T09:36:53.959Z,12.43
2023-04-23T09:39:24.732Z,14.87
2023-04-23T09:41:53.883Z,14.13
2023-04-23T09:44:23.122Z,13.43
2023-04-23T09:46:51.290Z,12.87
2023-04-23T09:49:19.196Z,13.03
2023-04-23T09:51:48.691Z,14.50
2023-04-23T09:54:16.632Z,13.10
2023-04-23T09:56:44.879Z,11.80
2023-04-23T09:59:45.927Z,13.23
2023-04-23T10:02:15.229Z,11.30
2023-04-23T10:04:42.949Z,10.30
2023-04-23T10:09:44.723Z,13.87
2023-04-23T10:12:31.340Z,11.00
2023-04-23T10:15:01.207Z,10.93
2023-04-23T10:17:29.014Z,9.70
2023-04-23T10:19:57.641Z,13.60
2023-04-23T10:22:31.282Z,11.60
2023-04-23T10:25:00.893Z,11.20
2023-04-23T10:27:48.410Z,11.80
2023-04-23T10:30:20.662Z,11.07
2023-04-23T10:32:49.919Z,11.87
2023-04-23T10:35:18.615Z,28.20
2023-04-23T10:37:48.455Z,39.80
2023-04-23T10:40:23.141Z,35.20
2023-04-23T10:42:51.707Z,21.47
2023-04-23T10:45:25.447Z,20.10
2023-04-23T10:47:56.800Z,22.07
2023-04-23T10:50:28.703Z,19.80
2023-04-23T10:52:58.136Z,18.47
2023-04-23T10:55:31.683Z,17.23
2023-04-23T10:58:01.962Z,15.50
2023-04-23T11:00:46.219Z,14.90
2023-04-23T11:03:44.341Z,13.40
2023-04-23T11:06:19.947Z,14.20
2023-04-23T11:08:54.528Z,12.87
2023-04-23T11:11:40.486Z,11.30
2023-04-23T11:14:17.286Z,11.50
2023-04-23T11:16:44.903Z,12.43
2023-04-23T11:19:13.154Z,11.53
2023-04-23T11:22:04.093Z,11.20
2023-04-23T11:24:42.878Z,10.60
2023-04-23T11:27:16.835Z,12.17
2023-04-23T11:29:46.938Z,12.10
2023-04-23T11:32:17.657Z,11.87
2023-04-23T11:34:47.747Z,11.30
2023-04-23T11:37:16.384Z,11.00
2023-04-23T11:39:51.451Z,9.90
2023-04-23T11:42:20.518Z,10.67
2023-04-23T11:44:54.429Z,9.73
2023-04-23T11:47:22.548Z,8.30
2023-04-23T11:49:50.156Z,11.03
2023-04-23T11:52:17.703Z,10.50
2023-04-23T11:54:45.265Z,10.00
2023-04-23T11:57:14.826Z,9.60
2023-04-23T11:59:42.648Z,9.90
2023-04-23T12:02:10.917Z,9.53
2023-04-23T12:04:40.870Z,11.00
2023-04-23T12:07:23.093Z,10.20
2023-04-23T12:09:58.348Z,9.47
2023-04-23T12:12:34.655Z,9.47
2023-04-23T12:15:07.428Z,10.60
2023-04-23T12:17:35.094Z,10.17
2023-04-23T12:20:07.497Z,10.40
2023-04-23T12:22:35.076Z,10.40
2023-04-23T12:25:08.652Z,9.73
2023-04-23T12:27:41.307Z,10.27
2023-04-23T12:30:10.046Z,10.17
2023-04-23T12:32:38.783Z,8.90
2023-04-23T12:35:06.884Z,10.70
2023-04-23T12:37:38.062Z,9.00
2023-04-23T12:40:07.696Z,10.63
2023-04-23T12:42:35.914Z,10.60
2023-04-23T12:45:08.328Z,9.53
2023-04-23T12:47:36.061Z,10.20
2023-04-23T12:50:05.910Z,9.77
2023-04-23T12:52:33.680Z,9.43
2023-04-23T12:55:01.670Z,10.20
2023-04-23T12:57:29.424Z,10.20
2023-04-23T12:59:57.042Z,9.67
2023-04-23T13:02:26.266Z,9.97
2023-04-23T13:04:59.784Z,10.37
2023-04-23T13:07:27.488Z,8.73
2023-04-23T13:09:55.020Z,9.87
2023-04-23T13:12:22.575Z,10.53
2023-04-23T13:14:50.135Z,10.60
2023-04-23T13:17:19.606Z,8.90
2023-04-23T13:19:47.186Z,9.70
2023-04-23T13:22:14.731Z,9.10
2023-04-23T13:24:42.349Z,10.10
2023-04-23T13:27:10.311Z,9.33
2023-04-23T13:29:38.221Z,9.13
2023-04-23T13:32:06.137Z,11.47
2023-04-23T13:34:34.778Z,9.20
2023-04-23T13:37:05.820Z,8.53
2023-04-23T13:39:33.371Z,10.57
2023-04-23T13:42:09.435Z,10.00
2023-04-23T13:44:37.721Z,9.70
2023-04-23T13:47:05.583Z,8.87
2023-04-23T13:49:33.200Z,10.10
2023-04-23T13:52:04.647Z,10.13
2023-04-23T13:54:32.557Z,9.60
2023-04-23T13:57:01.294Z,10.60
2023-04-23T13:59:29.924Z,9.40
2023-04-23T14:01:57.533Z,9.57
2023-04-23T14:04:25.115Z,9.60
2023-04-23T14:06:52.737Z,10.10
2023-04-23T14:09:22.445Z,9.77
2023-04-23T14:11:50.535Z,9.13
2023-04-23T14:14:18.431Z,8.53
2023-04-23T14:16:45.939Z,8.60
2023-04-23T14:19:13.513Z,9.60
2023-04-23T14:21:41.934Z,9.17
2023-04-23T14:24:18.990Z,7.90
2023-04-23T14:26:50.046Z,7.13
2023-04-23T14:29:23.416Z,7.97
2023-04-23T14:31:51.885Z,7.40
2023-04-23T14:34:19.561Z,9.43
2023-04-23T14:36:49.438Z,8.50
2023-04-23T14:39:17.506Z,6.63
2023-04-23T14:41:45.698Z,8.20
2023-04-23T14:44:13.274Z,7.80
2023-04-23T14:46:41.158Z,7.50
2023-04-23T14:49:09.131Z,7.87
2023-04-23T14:51:37.670Z,7.63
2023-04-23T14:54:05.462Z,8.13
2023-04-23T14:56:32.972Z,8.90
2023-04-23T14:59:00.513Z,6.80
2023-04-23T15:01:28.191Z,8.67
2023-04-23T15:03:55.949Z,7.67
2023-04-23T15:06:23.582Z,7.97
2023-04-23T15:08:51.422Z,8.00
2023-04-23T15:11:19.172Z,7.40
2023-04-23T15:14:01.632Z,6.80
2023-04-23T15:19:12.114Z,7.93
2023-04-23T15:21:42.134Z,6.70
2023-04-23T15:24:10.179Z,6.67
2023-04-23T15:26:38.242Z,6.10
2023-04-23T15:29:09.261Z,6.57
2023-04-23T15:31:38.013Z,5.00
2023-04-23T15:34:09.258Z,5.73
2023-04-23T15:36:38.233Z,5.73
2023-04-23T15:39:07.697Z,4.90
2023-04-23T15:41:40.502Z,4.50
2023-04-23T15:44:12.503Z,5.53
2023-04-23T15:46:40.690Z,4.23
2023-04-23T15:49:08.603Z,4.90
2023-04-23T15:51:37.321Z,4.40
2023-04-23T15:54:08.889Z,4.23
2023-04-23T15:56:37.418Z,4.20
2023-04-23T15:59:05.278Z,4.07
2023-04-23T16:01:33.004Z,3.70
2023-04-23T16:06:32.155Z,3.83
2023-04-23T16:08:59.868Z,4.20
2023-04-23T16:11:28.513Z,3.63
2023-04-23T16:13:57.265Z,4.50
2023-04-23T16:16:24.844Z,5.00
2023-04-23T16:18:52.491Z,4.93
2023-04-23T16:21:19.966Z,4.33
2023-04-23T16:23:47.491Z,4.57
2023-04-23T16:26:15.120Z,5.33
2023-04-23T16:28:42.624Z,4.70
2023-04-23T16:31:10.157Z,5.23
2023-04-23T16:33:37.889Z,5.20
2023-04-23T16:36:06.256Z,5.00
2023-04-23T16:38:33.829Z,4.60
2023-04-23T16:41:02.362Z,4.77
2023-04-23T16:43:29.884Z,5.07
2023-04-23T16:45:59.170Z,5.23
2023-04-23T16:48:27.027Z,3.73
2023-04-23T16:50:56.995Z,6.07
2023-04-23T16:53:24.558Z,5.10
2023-04-23T16:55:52.381Z,5.00
2023-04-23T16:58:20.090Z,6.27
2023-04-23T17:00:47.649Z,5.00
2023-04-23T17:03:16.235Z,4.80
2023-04-23T17:05:44.425Z,5.00
2023-04-23T17:08:12.058Z,4.43
2023-04-23T17:10:39.658Z,5.10
2023-04-23T17:13:07.202Z,4.80
2023-04-23T17:15:34.757Z,4.90
2023-04-23T17:18:02.544Z,5.50
2023-04-23T17:20:35.336Z,3.90
2023-04-23T17:23:10.101Z,5.63
2023-04-23T17:25:38.321Z,4.47
2023-04-23T17:28:05.815Z,5.10
2023-04-23T17:30:33.359Z,4.83
2023-04-23T17:33:01.112Z,4.37
2023-04-23T17:35:28.851Z,4.10
2023-04-23T17:37:56.413Z,3.83
2023-04-23T17:40:24.036Z,4.40
2023-04-23T17:42:51.923Z,4.30
2023-04-23T17:45:19.713Z,4.33
2023-04-23T17:47:47.411Z,4.17
2023-04-23T17:50:14.989Z,4.40
2023-04-23T17:52:42.648Z,4.60
2023-04-23T17:55:10.414Z,4.10
2023-04-23T17:57:38.100Z,3.87
2023-04-23T18:00:10.131Z,4.20
2023-04-23T18:02:40.583Z,5.23
2023-04-23T18:05:09.308Z,4.40
2023-04-23T18:07:37.595Z,5.80
2023-04-23T18:10:06.561Z,5.67
2023-04-23T18:12:35.048Z,7.00
2023-04-23T18:15:02.988Z,5.53
2023-04-23T18:17:31.144Z,6.53
2023-04-23T18:19:59.131Z,7.87
2023-04-23T18:22:26.624Z,8.97
2023-04-23T18:24:54.279Z,8.67
2023-04-23T18:27:21.798Z,9.43
2023-04-23T18:29:49.608Z,9.73
2023-04-23T18:32:27.450Z,9.13
2023-04-23T18:34:59.185Z,10.50
2023-04-23T18:37:37.848Z,10.60
2023-04-23T18:40:06.659Z,12.90
2023-04-23T18:42:34.707Z,11.73
2023-04-23T18:45:04.724Z,11.90
2023-04-23T18:47:38.007Z,12.80
2023-04-23T18:50:21.200Z,13.07
2023-04-23T18:52:48.993Z,13.13
2023-04-23T18:55:16.742Z,11.70
2023-04-23T18:57:44.262Z,13.07
2023-04-23T19:00:12.404Z,12.50
2023-04-23T19:02:40.214Z,13.50
2023-04-23T19:05:08.696Z,13.57
2023-04-23T19:07:37.544Z,13.63
2023-04-23T19:10:05.496Z,13.13
2023-04-23T19:12:33.003Z,13.33
2023-04-23T19:15:00.709Z,11.50
2023-04-23T19:17:28.270Z,11.83
2023-04-23T19:19:55.850Z,12.87
2023-04-23T19:22:25.942Z,11.80
2023-04-23T19:24:53.667Z,11.87
2023-04-23T19:27:21.785Z,12.60
2023-04-23T19:29:49.677Z,11.50
2023-04-23T19:32:17.207Z,11.20
2023-04-23T19:34:45.965Z,11.53
2023-04-23T19:37:13.499Z,15.83
2023-04-23T19:39:41.281Z,12.87
2023-04-23T19:42:08.993Z,11.23
2023-04-23T19:44:36.592Z,10.97
2023-04-23T19:47:04.339Z,12.63
2023-04-23T19:49:32.664Z,8.97
2023-04-23T19:52:02.131Z,10.83
2023-04-23T19:54:29.792Z,10.60
2023-04-23T19:56:57.371Z,9.77
2023-04-23T19:59:24.935Z,10.70
2023-04-23T20:01:52.487Z,10.33
2023-04-23T20:04:20.151Z,9.80
2023-04-23T20:06:47.817Z,10.10
2023-04-23T20:09:22.172Z,10.63
2023-04-23T20:11:49.817Z,10.70
2023-04-23T20:14:17.438Z,10.20
2023-04-23T20:16:45.292Z,10.50
2023-04-23T20:19:14.401Z,12.20
2023-04-23T20:21:43.090Z,10.40
2023-04-23T20:24:11.879Z,10.80
2023-04-23T20:26:41.089Z,10.40
2023-04-23T20:29:09.073Z,10.70
2023-04-23T20:31:37.403Z,10.00
2023-04-23T20:34:06.825Z,10.50
2023-04-23T20:36:34.414Z,11.30
2023-04-23T20:39:05.907Z,10.70
2023-04-23T20:41:37.300Z,10.30
2023-04-23T20:44:05.591Z,10.03
2023-04-23T20:46:33.506Z,9.73
2023-04-23T20:49:03.513Z,9.40
2023-04-23T20:51:34.883Z,10.40
2023-04-23T20:54:03.116Z,9.97
2023-04-23T20:56:31.643Z,11.90
2023-04-23T20:59:00.754Z,10.57
2023-04-23T21:01:28.371Z,10.20
2023-04-23T21:03:56.948Z,9.40
2023-04-23T21:06:24.644Z,10.20
2023-04-23T21:08:52.181Z,10.73
2023-04-23T21:11:20.681Z,10.00
2023-04-23T21:13:48.352Z,10.03
2023-04-23T21:16:15.924Z,10.20
2023-04-23T21:18:46.232Z,10.33
2023-04-23T21:21:13.790Z,11.07
2023-04-23T21:23:41.451Z,10.80
2023-04-23T21:26:09.299Z,10.90
2023-04-23T21:28:37.257Z,10.70
2023-04-23T21:31:14.125Z,10.40
2023-04-23T21:33:41.757Z,9.80
2023-04-23T21:36:09.253Z,9.93
2023-04-23T21:38:36.775Z,10.20
2023-04-23T21:41:04.487Z,9.80
2023-04-23T21:43:35.689Z,8.77
2023-04-23T21:46:03.196Z,8.23
2023-04-23T21:48:32.277Z,8.77
2023-04-23T21:50:59.788Z,9.67
2023-04-23T21:53:27.544Z,11.07
2023-04-23T21:55:55.079Z,9.53
2023-04-23T21:58:22.538Z,9.43
2023-04-23T22:00:50.099Z,9.43
2023-04-23T22:03:26.702Z,11.30
2023-04-23T22:06:06.069Z,9.70
2023-04-23T22:08:33.889Z,10.53
2023-04-23T22:11:01.426Z,9.60
2023-04-23T22:13:28.935Z,9.50
2023-04-23T22:15:57.598Z,8.83
2023-04-23T22:18:25.845Z,9.73
2023-04-23T22:20:53.414Z,8.30
2023-04-23T22:23:21.902Z,9.10
2023-04-23T22:25:49.593Z,8.67
2023-04-23T22:28:17.532Z,8.57
2023-04-23T22:30:45.131Z,10.03
2023-04-23T22:33:12.668Z,9.07
2023-04-23T22:35:40.146Z,8.70
2023-04-23T22:38:08.571Z,8.53
2023-04-23T22:40:36.183Z,9.53
2023-04-23T22:43:05.257Z,8.63
2023-04-23T22:45:32.855Z,9.63
2023-04-23T22:48:00.420Z,10.77
2023-04-23T22:50:27.985Z,10.10
2023-04-23T22:52:56.401Z,10.53
2023-04-23T22:55:23.947Z,9.63
2023-04-23T22:57:51.463Z,10.03
2023-04-23T23:00:19.133Z,9.77
2023-04-23T23:02:46.712Z,9.70
2023-04-23T23:05:14.307Z,9.17
2023-04-23T23:07:42.856Z,9.07
2023-04-23T23:10:11.017Z,8.70
2023-04-23T23:12:39.526Z,9.27
2023-04-23T23:15:08.094Z,9.47
2023-04-23T23:17:35.639Z,10.30
2023-04-23T23:20:04.067Z,9.07
2023-04-23T23:22:31.705Z,9.13
2023-04-23T23:24:59.248Z,9.50
2023-04-23T23:27:26.811Z,9.27
2023-04-23T23:29:54.381Z,9.33
2023-04-23T23:32:22.003Z,9.00
2023-04-23T23:34:49.559Z,9.50
2023-04-23T23:37:17.660Z,9.20
2023-04-23T23:39:45.920Z,9.17
2023-04-23T23:42:13.419Z,8.87
2023-04-23T23:44:41.063Z,9.30
2023-04-23T23:47:08.742Z,9.03
2023-04-23T23:49:36.392Z,7.77
2023-04-23T23:52:04.168Z,7.53
2023-04-23T23:54:31.649Z,8.47
2023-04-23T23:57:00.106Z,9.27
2023-04-23T23:59:27.724Z,8.40
